Time;durP1;ratioP1;P1;durP2;ratioP2;P2;SDS_P1;SDS_P2;PMS_P1;PMS_P2;Temp;Humidity;BMP_temperature;BMP_pressure;BME280_temperature;BME280_humidity;BME280_pressure;Samples;Min_cycle;Max_cycle;Signal;HPM_P1;HPM_P2
2021/01/09 00:00:15;;;;;;;1.23;1.13;;;17.80;25.70;;;;;;5090440;28;20166;-60
2021/01/09 00:02:41;;;;;;;1.30;1.20;;;17.80;25.70;;;;;;5090310;28;20439;-59
2021/01/09 00:05:09;;;;;;;1.70;1.13;;;17.80;25.70;;;;;;5090234;28;20189;-59
2021/01/09 00:07:36;;;;;;;1.23;1.13;;;17.80;25.70;;;;;;5089494;28;20481;-60
2021/01/09 00:10:04;;;;;;;0.88;0.88;;;17.80;25.70;;;;;;5089862;28;20226;-60
2021/01/09 00:12:29;;;;;;;1.15;1.00;;;17.70;25.60;;;;;;5090201;28;20219;-59
2021/01/09 00:14:55;;;;;;;1.30;1.20;;;17.70;25.60;;;;;;5090058;28;20601;-60
2021/01/09 00:17:21;;;;;;;0.93;0.77;;;17.70;25.60;;;;;;5088867;28;20185;-60
2021/01/09 00:19:46;;;;;;;1.00;0.90;;;17.70;25.60;;;;;;5090105;28;20162;-59
2021/01/09 00:22:12;;;;;;;1.40;1.30;;;17.80;25.70;;;;;;5076799;28;20216;-60
2021/01/09 00:24:38;;;;;;;1.10;1.00;;;17.70;25.60;;;;;;5076452;28;20158;-60
2021/01/09 00:27:11;;;;;;;1.10;1.02;;;17.70;25.60;;;;;;5076192;28;20247;-60
2021/01/09 00:29:41;;;;;;;1.88;1.48;;;17.70;25.60;;;;;;5076351;28;20278;-59
2021/01/09 00:32:07;;;;;;;1.20;1.10;;;17.70;25.70;;;;;;5076071;28;20166;-59
2021/01/09 00:34:33;;;;;;;0.90;0.90;;;17.70;25.60;;;;;;5076361;28;20197;-59
2021/01/09 00:37:00;;;;;;;1.27;0.97;;;17.70;25.60;;;;;;5075614;28;20185;-60
2021/01/09 00:39:25;;;;;;;1.25;1.15;;;17.70;25.60;;;;;;5076316;28;20155;-60
2021/01/09 00:41:51;;;;;;;1.20;1.10;;;17.80;25.70;;;;;;5076093;28;20200;-60
2021/01/09 00:44:17;;;;;;;1.40;1.17;;;17.70;25.70;;;;;;5075979;28;20618;-60
2021/01/09 00:46:42;;;;;;;1.23;1.13;;;17.70;26.20;;;;;;5074862;28;20174;-60
2021/01/09 00:49:08;;;;;;;1.70;1.33;;;17.80;26.30;;;;;;5075668;28;20197;-60
2021/01/09 00:51:34;;;;;;;0.80;0.60;;;17.70;25.60;;;;;;5075876;28;20161;-60
2021/01/09 00:53:59;;;;;;;0.90;0.90;;;17.70;25.60;;;;;;5075416;28;20614;-60
2021/01/09 00:56:25;;;;;;;3.70;1.47;;;17.70;25.60;;;;;;5073340;28;20629;-60
2021/01/09 00:58:51;;;;;;;1.90;1.17;;;17.70;25.60;;;;;;5075929;28;20167;-60
2021/01/09 01:01:17;;;;;;;1.00;1.00;;;17.80;25.70;;;;;;5075737;28;20158;-60
2021/01/09 01:03:42;;;;;;;1.40;1.30;;;17.70;26.20;;;;;;5075674;28;20534;-60
2021/01/09 01:06:09;;;;;;;1.20;1.10;;;17.80;25.60;;;;;;5075638;28;20163;-61
2021/01/09 01:08:35;;;;;;;1.10;1.00;;;17.80;25.60;;;;;;5075154;28;20413;-60
2021/01/09 01:11:04;;;;;;;0.80;0.80;;;17.80;25.70;;;;;;5075315;28;20217;-60
2021/01/09 01:13:30;;;;;;;1.33;1.10;;;17.80;25.60;;;;;;5075540;28;20158;-60
2021/01/09 01:15:56;;;;;;;1.37;1.27;;;17.80;25.70;;;;;;5075568;28;20177;-60
2021/01/09 01:18:22;;;;;;;1.30;1.20;;;17.80;25.70;;;;;;5074095;28;20194;-60
2021/01/09 01:20:49;;;;;;;1.40;1.20;;;17.70;25.60;;;;;;5074154;28;20568;-60
2021/01/09 01:23:16;;;;;;;1.08;0.98;;;17.80;25.70;;;;;;5074744;28;20265;-60
2021/01/09 01:25:42;;;;;;;1.30;1.10;;;17.80;25.70;;;;;;5075426;28;20479;-60
2021/01/09 01:28:07;;;;;;;1.10;1.00;;;17.80;25.70;;;;;;5073953;28;20165;-60
2021/01/09 01:30:33;;;;;;;1.40;1.07;;;17.70;25.60;;;;;;5074950;28;20482;-59
2021/01/09 01:32:58;;;;;;;1.63;1.00;;;17.70;25.60;;;;;;5073970;28;20618;-59
2021/01/09 01:35:27;;;;;;;1.13;0.90;;;17.70;25.60;;;;;;5075211;28;20167;-59
2021/01/09 01:37:52;;;;;;;1.10;1.00;;;17.70;25.60;;;;;;5074646;28;20155;-59
2021/01/09 01:40:18;;;;;;;1.13;1.03;;;17.70;25.60;;;;;;5075070;28;20220;-59
2021/01/09 01:42:44;;;;;;;0.90;0.90;;;17.70;25.60;;;;;;5074897;28;20165;-60
2021/01/09 01:45:10;;;;;;;0.93;0.93;;;17.70;25.60;;;;;;5074870;28;20162;-60
2021/01/09 01:47:36;;;;;;;1.00;0.90;;;17.70;25.60;;;;;;5074583;28;20408;-60
2021/01/09 01:50:02;;;;;;;1.23;1.13;;;17.80;25.70;;;;;;5074788;28;20419;-60
2021/01/09 01:52:28;;;;;;;1.05;0.90;;;17.70;25.60;;;;;;5074176;28;20166;-60
2021/01/09 01:54:54;;;;;;;0.90;0.90;;;17.70;25.60;;;;;;5073393;28;20280;-60
2021/01/09 01:57:20;;;;;;;1.23;1.13;;;17.70;25.60;;;;;;5074641;28;20159;-61
2021/01/09 01:59:46;;;;;;;1.15;0.98;;;17.70;25.60;;;;;;5074584;28;20159;-60
2021/01/09 02:02:13;;;;;;;1.17;1.07;;;17.70;25.60;;;;;;5074407;28;20899;-60
2021/01/09 02:04:40;;;;;;;1.10;1.00;;;17.70;25.60;;;;;;5074684;28;20158;-60
2021/01/09 02:07:10;;;;;;;1.27;1.10;;;17.70;25.60;;;;;;5073929;28;20241;-60
2021/01/09 02:09:42;;;;;;;0.93;0.90;;;17.70;25.60;;;;;;5074192;28;20222;-60
2021/01/09 02:12:37;;;;;;;1.17;1.08;;;17.70;25.60;;;;;;5074257;28;20241;-60
2021/01/09 02:15:04;;;;;;;1.50;1.40;;;17.70;25.60;;;;;;5069054;28;20186;-59
2021/01/09 02:17:31;;;;;;;1.20;1.10;;;17.70;25.60;;;;;;5073930;28;20158;-59
2021/01/09 02:20:02;;;;;;;1.17;1.08;;;17.70;25.60;;;;;;5074416;28;20181;-60
2021/01/09 02:22:32;;;;;;;1.98;1.20;;;17.70;25.60;;;;;;5073693;28;20155;-60
2021/01/09 02:24:57;;;;;;;1.30;1.10;;;17.70;25.60;;;;;;5074146;28;20159;-59
2021/01/09 02:27:23;;;;;;;2.60;1.10;;;17.70;25.60;;;;;;5074042;28;20177;-59
2021/01/09 02:30:06;;;;;;;1.00;0.90;;;17.70;25.60;;;;;;5073924;28;20182;-59
2021/01/09 02:32:41;;;;;;;0.90;0.90;;;17.70;25.60;;;;;;5073939;28;20416;-59
2021/01/09 02:35:08;;;;;;;1.40;1.20;;;17.70;25.60;;;;;;5074227;28;20150;-59
2021/01/09 02:37:33;;;;;;;1.40;1.30;;;17.80;25.70;;;;;;5073496;28;20162;-59
2021/01/09 02:39:59;;;;;;;1.47;1.37;;;17.70;25.60;;;;;;5073902;28;20492;-59
2021/01/09 02:42:25;;;;;;;1.23;1.08;;;17.70;25.60;;;;;;5073849;28;20162;-60
2021/01/09 02:44:53;;;;;;;1.10;1.00;;;17.70;25.60;;;;;;5073673;28;20594;-60
2021/01/09 02:47:19;;;;;;;1.20;1.10;;;17.70;25.60;;;;;;5073554;28;20170;-59
2021/01/09 02:49:45;;;;;;;1.10;1.00;;;17.70;25.60;;;;;;5073797;28;20190;-60
2021/01/09 02:52:11;;;;;;;1.20;1.10;;;17.70;25.60;;;;;;5073303;28;20405;-59
2021/01/09 02:54:37;;;;;;;1.07;0.97;;;17.70;25.60;;;;;;5073803;28;20484;-60
2021/01/09 02:57:03;;;;;;;1.25;1.15;;;17.70;25.60;;;;;;5073554;28;20170;-60
2021/01/09 02:59:29;;;;;;;1.30;1.15;;;17.70;25.60;;;;;;5074087;28;20162;-60
2021/01/09 03:01:54;;;;;;;0.73;0.73;;;17.70;25.60;;;;;;5073387;28;20665;-60
2021/01/09 03:04:20;;;;;;;0.97;0.97;;;17.70;25.60;;;;;;5072338;28;20529;-59
2021/01/09 03:06:46;;;;;;;2.80;1.10;;;17.70;25.60;;;;;;5072455;28;20518;-60
2021/01/09 03:09:11;;;;;;;1.40;1.30;;;17.70;25.60;;;;;;5073344;28;20189;-59
2021/01/09 03:11:38;;;;;;;1.30;0.90;;;17.70;25.60;;;;;;5106248;28;20517;-60
2021/01/09 03:14:04;;;;;;;1.10;1.00;;;17.70;25.60;;;;;;5073412;28;20204;-59
2021/01/09 03:16:30;;;;;;;1.10;0.98;;;17.70;25.60;;;;;;5072187;28;20243;-59
2021/01/09 03:18:55;;;;;;;1.23;1.10;;;17.70;25.60;;;;;;5073609;28;20261;-60
2021/01/09 03:21:21;;;;;;;1.13;1.07;;;17.70;25.60;;;;;;5073727;28;20182;-60
2021/01/09 03:23:47;;;;;;;1.03;0.93;;;17.70;25.70;;;;;;5073022;28;20479;-60
2021/01/09 03:26:13;;;;;;;1.27;1.17;;;17.70;25.60;;;;;;5073366;28;20205;-60
2021/01/09 03:28:38;;;;;;;1.30;1.17;;;17.70;25.70;;;;;;5073452;28;20204;-61
2021/01/09 03:31:04;;;;;;;1.10;1.00;;;17.70;25.60;;;;;;5073232;28;20240;-60
2021/01/09 03:33:30;;;;;;;1.07;1.00;;;17.70;25.60;;;;;;5073357;28;20155;-59
2021/01/09 03:35:56;;;;;;;1.07;0.97;;;17.70;25.60;;;;;;5072172;28;20632;-59
2021/01/09 03:38:22;;;;;;;0.80;0.80;;;17.70;25.60;;;;;;5072896;28;20162;-60
2021/01/09 03:40:48;;;;;;;2.53;1.13;;;17.70;25.60;;;;;;5073672;28;20181;-59
2021/01/09 03:43:13;;;;;;;1.30;0.90;;;17.70;25.60;;;;;;5073088;28;20510;-60
2021/01/09 03:45:39;;;;;;;1.13;1.03;;;17.70;25.70;;;;;;5072172;28;20165;-59
2021/01/09 03:48:05;;;;;;;0.90;0.90;;;17.70;25.70;;;;;;5071765;28;20256;-59
2021/01/09 03:50:31;;;;;;;1.10;1.00;;;17.70;25.70;;;;;;5073214;28;20209;-61
2021/01/09 03:52:56;;;;;;;1.80;1.27;;;17.70;25.70;;;;;;5072873;28;20602;-59
2021/01/09 03:55:22;;;;;;;1.30;1.20;;;17.70;25.60;;;;;;5073227;28;20645;-60
2021/01/09 03:57:48;;;;;;;1.20;1.10;;;17.70;25.60;;;;;;5076672;28;20637;-59
2021/01/09 04:00:15;;;;;;;1.00;0.83;;;17.70;25.60;;;;;;5076875;28;20190;-60
2021/01/09 04:02:40;;;;;;;1.13;1.02;;;17.70;25.70;;;;;;5076728;28;20166;-60
2021/01/09 04:05:08;;;;;;;1.83;1.40;;;17.70;25.60;;;;;;5076830;28;20162;-60
2021/01/09 04:07:34;;;;;;;1.35;1.25;;;17.70;25.60;;;;;;5076273;28;20177;-60
2021/01/09 04:09:59;;;;;;;1.43;1.33;;;17.70;25.60;;;;;;5076440;28;20214;-60
2021/01/09 04:12:25;;;;;;;1.30;0.97;;;17.70;25.70;;;;;;5075211;28;20177;-59
2021/01/09 04:14:51;;;;;;;1.20;0.90;;;17.70;25.60;;;;;;5058701;28;20178;-59
2021/01/09 04:17:16;;;;;;;1.10;1.00;;;17.70;25.60;;;;;;5075114;28;20208;-60
2021/01/09 04:19:42;;;;;;;1.33;0.90;;;17.70;25.60;;;;;;5076545;28;20159;-59
2021/01/09 04:22:07;;;;;;;1.20;1.10;;;17.70;25.60;;;;;;5075948;28;20162;-61
2021/01/09 04:24:33;;;;;;;0.90;0.90;;;17.70;25.60;;;;;;5076342;28;20177;-60
2021/01/09 04:27:00;;;;;;;1.43;1.33;;;17.70;25.60;;;;;;5076416;28;20249;-60
2021/01/09 04:29:26;;;;;;;1.08;0.98;;;17.70;26.20;;;;;;5076398;28;20277;-60
2021/01/09 04:31:53;;;;;;;1.27;1.17;;;17.70;26.20;;;;;;5076250;28;20607;-60
2021/01/09 04:34:20;;;;;;;1.25;1.13;;;17.70;25.60;;;;;;5076397;28;20154;-60
2021/01/09 04:36:45;;;;;;;1.33;1.02;;;17.70;25.60;;;;;;5076275;28;20724;-60
2021/01/09 04:39:12;;;;;;;1.20;1.10;;;17.70;25.60;;;;;;5075772;28;20246;-60
2021/01/09 04:41:38;;;;;;;1.20;1.10;;;17.70;25.60;;;;;;5076036;28;20420;-60
2021/01/09 04:44:06;;;;;;;1.20;1.10;;;17.70;26.20;;;;;;5076039;28;20159;-60
2021/01/09 04:46:36;;;;;;;0.90;0.88;;;17.70;25.70;;;;;;5076072;28;20565;-60
2021/01/09 04:49:02;;;;;;;1.65;0.98;;;17.70;25.70;;;;;;5075824;28;20158;-60
2021/01/09 04:51:28;;;;;;;1.10;1.00;;;17.70;25.70;;;;;;5074930;28;20151;-61
2021/01/09 04:53:55;;;;;;;1.30;1.20;;;17.70;25.70;;;;;;5075338;28;20408;-60
2021/01/09 04:56:21;;;;;;;1.20;1.10;;;17.70;25.70;;;;;;5075732;28;20178;-60
2021/01/09 04:58:47;;;;;;;1.42;1.00;;;17.70;25.70;;;;;;5075756;28;20166;-60
2021/01/09 05:01:13;;;;;;;1.10;1.00;;;17.60;25.60;;;;;;5075802;28;20306;-60
2021/01/09 05:03:39;;;;;;;1.20;1.10;;;17.60;25.60;;;;;;5075706;28;20155;-60
2021/01/09 05:06:05;;;;;;;1.13;1.00;;;17.70;25.70;;;;;;5075908;28;20173;-60
2021/01/09 05:08:31;;;;;;;1.15;1.05;;;17.60;25.60;;;;;;5075137;28;20375;-61
2021/01/09 05:10:57;;;;;;;1.10;1.00;;;17.60;25.60;;;;;;5075247;28;20264;-60
2021/01/09 05:13:23;;;;;;;1.38;1.27;;;17.70;25.70;;;;;;5074404;28;20150;-60
2021/01/09 05:15:49;;;;;;;1.20;1.10;;;17.60;25.70;;;;;;5075546;28;20655;-61
2021/01/09 05:18:17;;;;;;;1.10;1.00;;;17.70;25.70;;;;;;5074023;28;20920;-60
2021/01/09 05:20:43;;;;;;;1.25;1.15;;;17.70;25.70;;;;;;5075509;28;20150;-60
2021/01/09 05:23:10;;;;;;;1.35;1.25;;;17.70;26.20;;;;;;5074722;28;20166;-60
2021/01/09 05:25:36;;;;;;;1.10;1.00;;;17.60;25.60;;;;;;5075311;28;20169;-60
2021/01/09 05:28:04;;;;;;;0.90;0.80;;;17.60;25.60;;;;;;5075250;28;20158;-60
2021/01/09 05:30:31;;;;;;;1.00;0.90;;;17.60;25.60;;;;;;5075288;28;20259;-60
2021/01/09 05:33:00;;;;;;;0.70;0.70;;;17.60;25.70;;;;;;5075099;28;20158;-60
2021/01/09 05:35:32;;;;;;;0.98;0.98;;;17.60;25.60;;;;;;5075197;28;20360;-60
2021/01/09 05:37:57;;;;;;;1.10;1.00;;;17.60;25.60;;;;;;5074571;28;20159;-60
2021/01/09 05:40:23;;;;;;;0.90;0.77;;;17.60;25.60;;;;;;5074995;28;20174;-61
2021/01/09 05:42:50;;;;;;;1.00;1.00;;;17.60;25.60;;;;;;5074817;28;20505;-61
2021/01/09 05:45:17;;;;;;;1.52;1.42;;;17.60;25.70;;;;;;5074876;28;20159;-61
2021/01/09 05:47:44;;;;;;;0.95;0.90;;;17.60;25.70;;;;;;5074751;28;20158;-59
2021/01/09 05:50:11;;;;;;;1.17;1.05;;;17.60;25.70;;;;;;5073413;28;20293;-59
2021/01/09 05:52:39;;;;;;;1.10;1.00;;;17.60;25.70;;;;;;5074259;28;20154;-62
2021/01/09 05:55:06;;;;;;;0.82;0.82;;;17.60;25.70;;;;;;5074482;28;20154;-59
2021/01/09 05:57:33;;;;;;;1.35;1.25;;;17.60;25.70;;;;;;5074610;28;20166;-60
2021/01/09 06:00:06;;;;;;;1.25;1.15;;;17.60;25.70;;;;;;5073428;28;20265;-60
2021/01/09 06:02:49;;;;;;;1.02;0.90;;;17.60;25.70;;;;;;5074459;28;20189;-60
2021/01/09 06:05:17;;;;;;;1.50;1.40;;;17.60;25.70;;;;;;5074421;28;20169;-60
2021/01/09 06:07:47;;;;;;;1.00;0.80;;;17.60;25.70;;;;;;5074019;28;20159;-60
2021/01/09 06:10:16;;;;;;;0.73;0.73;;;17.60;25.70;;;;;;5074033;28;20218;-60
2021/01/09 06:12:59;;;;;;;1.20;1.10;;;17.60;25.70;;;;;;5074387;28;20154;-60
2021/01/09 06:15:29;;;;;;;1.20;1.10;;;17.60;25.70;;;;;;5074342;28;20174;-59
2021/01/09 06:18:02;;;;;;;1.20;1.10;;;17.60;25.70;;;;;;5074236;28;20179;-60
2021/01/09 06:20:29;;;;;;;1.02;0.95;;;17.60;25.70;;;;;;5073791;28;20245;-60
2021/01/09 06:23:01;;;;;;;1.67;1.20;;;17.60;25.70;;;;;;5073580;28;20169;-60
2021/01/09 06:25:33;;;;;;;1.20;1.00;;;17.60;25.70;;;;;;5074208;28;20150;-60
2021/01/09 06:28:04;;;;;;;1.10;1.00;;;17.60;25.70;;;;;;5056507;28;20167;-60
2021/01/09 06:30:33;;;;;;;1.20;1.20;;;17.60;25.70;;;;;;5073659;28;20193;-60
2021/01/09 06:33:03;;;;;;;1.00;0.90;;;17.60;25.70;;;;;;5073984;28;20150;-60
2021/01/09 06:35:32;;;;;;;1.38;1.27;;;17.60;25.80;;;;;;5074282;28;20158;-60
2021/01/09 06:37:57;;;;;;;1.63;1.10;;;17.60;25.70;;;;;;5073324;28;20154;-60
2021/01/09 06:40:23;;;;;;;1.27;1.17;;;17.60;25.70;;;;;;5074129;28;20158;-60
2021/01/09 06:42:50;;;;;;;1.10;1.00;;;17.60;25.70;;;;;;5073819;28;20159;-60
2021/01/09 06:45:16;;;;;;;0.88;0.88;;;17.60;25.70;;;;;;5074232;28;20167;-60
2021/01/09 06:47:59;;;;;;;1.08;0.98;;;17.70;25.80;;;;;;5073751;28;20234;-60
2021/01/09 06:50:24;;;;;;;0.80;0.75;;;17.60;25.70;;;;;;5073976;28;20198;-60
2021/01/09 06:52:53;;;;;;;1.50;1.30;;;17.60;25.80;;;;;;5073270;28;20200;-60
2021/01/09 06:55:37;;;;;;;0.80;0.80;;;17.60;25.80;;;;;;5073707;28;20167;-60
2021/01/09 06:58:06;;;;;;;1.25;1.15;;;17.60;25.80;;;;;;5073779;28;20189;-60
2021/01/09 07:00:32;;;;;;;1.30;1.20;;;17.60;25.80;;;;;;5073885;28;20254;-60
2021/01/09 07:03:15;;;;;;;1.40;1.23;;;17.60;25.80;;;;;;5073602;28;20182;-60
2021/01/09 07:05:45;;;;;;;1.30;1.20;;;17.60;25.80;;;;;;5073595;28;20185;-60
2021/01/09 07:08:25;;;;;;;1.40;1.30;;;17.60;25.80;;;;;;5072951;28;20155;-60
2021/01/09 07:10:54;;;;;;;1.08;0.98;;;17.60;25.80;;;;;;5073226;28;20283;-60
2021/01/09 07:13:21;;;;;;;1.50;1.40;;;17.70;25.90;;;;;;5073450;28;20605;-61
2021/01/09 07:15:47;;;;;;;0.98;0.98;;;17.70;25.90;;;;;;5073671;28;20158;-61
2021/01/09 07:18:13;;;;;;;1.10;1.00;;;17.70;25.90;;;;;;5073504;28;20169;-60
2021/01/09 07:20:44;;;;;;;1.23;1.00;;;17.60;25.80;;;;;;5073581;28;20598;-59
2021/01/09 07:23:13;;;;;;;2.05;0.80;;;17.70;25.90;;;;;;5072957;28;20147;-60
2021/01/09 07:25:44;;;;;;;1.60;1.50;;;17.70;25.90;;;;;;5073441;28;20159;-60
2021/01/09 07:28:13;;;;;;;1.17;1.00;;;17.70;25.90;;;;;;5073396;28;20367;-61
2021/01/09 07:30:40;;;;;;;1.40;1.30;;;17.70;25.90;;;;;;5074275;28;20198;-60
2021/01/09 07:33:14;;;;;;;1.08;0.98;;;17.70;25.90;;;;;;5077328;28;20617;-60
2021/01/09 07:35:44;;;;;;;1.30;0.90;;;17.70;26.40;;;;;;5077416;28;20158;-60
2021/01/09 07:38:12;;;;;;;1.35;1.25;;;17.70;26.40;;;;;;5076780;28;20250;-60
2021/01/09 07:40:46;;;;;;;1.40;1.10;;;17.70;25.90;;;;;;5077329;28;20158;-60
2021/01/09 07:43:43;;;;;;;1.10;1.00;;;17.70;25.90;;;;;;5077149;28;20149;-60
2021/01/09 07:46:25;;;;;;;0.88;0.88;;;17.70;25.90;;;;;;5077153;28;20177;-60
2021/01/09 07:48:52;;;;;;;1.08;0.95;;;17.70;25.80;;;;;;5077131;28;20186;-60
2021/01/09 07:51:53;;;;;;;0.90;0.90;;;17.70;25.80;;;;;;5076930;28;20155;-60
2021/01/09 07:54:29;;;;;;;1.08;0.98;;;17.70;25.80;;;;;;5077049;28;20606;-60
2021/01/09 07:56:55;;;;;;;1.10;1.00;;;17.70;25.80;;;;;;5075267;28;20174;-60
2021/01/09 07:59:21;;;;;;;1.02;0.90;;;17.70;25.80;;;;;;5075804;28;20165;-60
2021/01/09 08:01:47;;;;;;;1.27;1.10;;;17.70;25.80;;;;;;5075599;28;20201;-60
2021/01/09 08:04:13;;;;;;;0.93;0.93;;;17.70;25.80;;;;;;5076769;28;20196;-60
2021/01/09 08:06:39;;;;;;;1.70;1.37;;;17.70;25.80;;;;;;5075524;28;20503;-60
2021/01/09 08:09:06;;;;;;;1.30;0.95;;;17.80;25.90;;;;;;5076182;28;20462;-60
2021/01/09 08:11:31;;;;;;;1.20;0.95;;;17.80;25.90;;;;;;5076672;28;20238;-60
2021/01/09 08:14:01;;;;;;;1.10;1.00;;;17.80;25.90;;;;;;5075139;28;20695;-60
2021/01/09 08:16:27;;;;;;;1.58;1.10;;;17.80;25.90;;;;;;5076618;28;20146;-61
2021/01/09 08:18:52;;;;;;;1.10;1.00;;;17.80;25.80;;;;;;5076277;28;20155;-60
2021/01/09 08:21:23;;;;;;;1.03;1.00;;;17.80;25.80;;;;;;5076552;28;20163;-60
2021/01/09 08:23:54;;;;;;;1.35;1.25;;;17.80;25.80;;;;;;5075947;28;20181;-61
2021/01/09 08:26:22;;;;;;;1.30;0.93;;;17.80;25.80;;;;;;5076346;28;20154;-59
2021/01/09 08:28:49;;;;;;;1.23;1.13;;;17.80;25.70;;;;;;5076403;28;20155;-60
2021/01/09 08:31:16;;;;;;;1.48;1.10;;;17.80;25.70;;;;;;5076337;28;20178;-60
2021/01/09 08:33:47;;;;;;;1.05;0.90;;;17.80;25.70;;;;;;5076064;28;20674;-61
2021/01/09 08:36:15;;;;;;;1.15;1.05;;;17.90;25.80;;;;;;5076227;28;20161;-60
2021/01/09 08:38:41;;;;;;;1.23;1.13;;;17.90;25.70;;;;;;5075673;28;20665;-60
2021/01/09 08:41:06;;;;;;;1.10;1.00;;;17.90;25.70;;;;;;5076101;28;20194;-61
2021/01/09 08:43:32;;;;;;;1.40;1.30;;;17.90;25.70;;;;;;5075576;28;20733;-61
2021/01/09 08:45:58;;;;;;;0.83;0.83;;;17.90;25.70;;;;;;5076093;28;20554;-60
2021/01/09 08:48:26;;;;;;;1.30;1.20;;;17.90;25.70;;;;;;5075949;28;20173;-61
2021/01/09 08:51:02;;;;;;;1.13;1.08;;;17.90;25.70;;;;;;5076142;28;20260;-60
2021/01/09 08:53:35;;;;;;;1.90;1.02;;;17.90;25.60;;;;;;5075309;28;20153;-60
2021/01/09 08:56:04;;;;;;;1.80;1.10;;;18.00;25.70;;;;;;5076267;28;20166;-60
2021/01/09 08:58:31;;;;;;;1.60;1.50;;;18.00;25.70;;;;;;5074685;28;20300;-61
2021/01/09 09:01:00;;;;;;;1.25;1.15;;;18.00;25.60;;;;;;5074666;28;20174;-59
2021/01/09 09:03:33;;;;;;;1.65;1.55;;;18.00;25.60;;;;;;5074486;28;20162;-60
2021/01/09 09:06:06;;;;;;;0.80;0.80;;;18.00;25.60;;;;;;5075735;28;20186;-60
2021/01/09 09:08:33;;;;;;;1.27;1.17;;;18.00;25.50;;;;;;5073983;28;20163;-60
2021/01/09 09:11:01;;;;;;;1.00;0.95;;;18.00;25.50;;;;;;5075366;28;20557;-61
2021/01/09 09:13:27;;;;;;;0.98;0.90;;;18.00;25.50;;;;;;5075476;28;20175;-59
2021/01/09 09:15:53;;;;;;;0.95;0.85;;;18.10;25.50;;;;;;5075393;28;20179;-61
2021/01/09 09:18:20;;;;;;;1.37;1.27;;;18.10;25.50;;;;;;5075360;28;20204;-59
2021/01/09 09:20:51;;;;;;;1.20;1.10;;;18.10;25.40;;;;;;5075421;28;20411;-61
2021/01/09 09:23:18;;;;;;;1.40;1.02;;;18.10;25.40;;;;;;5074923;28;20158;-60
2021/01/09 09:25:44;;;;;;;1.52;1.42;;;18.10;25.30;;;;;;5075504;28;20253;-61
2021/01/09 09:28:10;;;;;;;1.60;1.27;;;18.20;25.40;;;;;;5073395;28;20194;-60
2021/01/09 09:30:35;;;;;;;1.13;1.03;;;18.20;25.30;;;;;;5074625;28;20221;-60
2021/01/09 09:33:14;;;;;;;1.37;1.27;;;18.20;25.30;;;;;;5074842;28;20178;-60
2021/01/09 09:35:40;;;;;;;1.10;1.00;;;18.20;25.30;;;;;;5075104;28;20613;-60
2021/01/09 09:38:10;;;;;;;1.20;1.10;;;18.20;25.30;;;;;;5073426;28;20161;-60
2021/01/09 09:40:37;;;;;;;1.55;1.40;;;18.20;25.30;;;;;;5074955;28;20249;-59
2021/01/09 09:43:19;;;;;;;1.05;1.00;;;18.20;25.30;;;;;;5074893;28;20263;-60
2021/01/09 09:46:14;;;;;;;1.00;0.90;;;18.20;25.30;;;;;;5075145;28;20158;-60
2021/01/09 09:48:44;;;;;;;1.30;1.20;;;18.20;25.30;;;;;;5070252;28;20641;-61
2021/01/09 09:51:11;;;;;;;1.20;1.00;;;18.20;25.30;;;;;;5074736;28;20197;-60
2021/01/09 09:53:42;;;;;;;1.40;1.20;;;18.20;25.30;;;;;;5072166;28;20204;-60
2021/01/09 09:56:23;;;;;;;1.40;1.10;;;18.20;25.30;;;;;;5073347;28;20527;-60
2021/01/09 09:59:00;;;;;;;1.10;1.00;;;18.20;25.30;;;;;;5073396;28;20585;-61
2021/01/09 10:01:31;;;;;;;1.55;0.93;;;18.20;25.30;;;;;;5074721;28;20182;-60
2021/01/09 10:03:58;;;;;;;0.77;0.77;;;18.20;25.30;;;;;;5074435;28;20189;-60
2021/01/09 10:06:34;;;;;;;1.23;1.13;;;18.30;25.30;;;;;;5074415;28;20267;-60
2021/01/09 10:09:26;;;;;;;1.10;1.00;;;18.30;25.20;;;;;;5073809;28;20155;-60
2021/01/09 10:11:53;;;;;;;1.10;1.00;;;18.30;25.10;;;;;;5074114;28;20206;-60
2021/01/09 10:14:18;;;;;;;1.33;1.23;;;18.40;25.10;;;;;;5073330;28;20159;-60
2021/01/09 10:16:44;;;;;;;0.90;0.90;;;18.40;25.10;;;;;;5074164;28;20181;-60
2021/01/09 10:19:12;;;;;;;1.07;1.00;;;18.40;25.00;;;;;;5074203;28;20401;-60
2021/01/09 10:21:38;;;;;;;0.90;0.75;;;18.40;25.00;;;;;;5074435;28;20165;-60
2021/01/09 10:24:04;;;;;;;1.67;1.00;;;18.40;24.90;;;;;;5073530;28;20154;-61
2021/01/09 10:26:32;;;;;;;0.82;0.70;;;18.50;25.00;;;;;;5074252;28;20155;-61
2021/01/09 10:28:59;;;;;;;1.30;1.20;;;18.50;24.90;;;;;;5073087;28;20197;-60
2021/01/09 10:31:36;;;;;;;1.17;1.05;;;18.50;24.90;;;;;;5072650;28;20181;-60
2021/01/09 10:34:03;;;;;;;1.17;1.08;;;18.50;24.90;;;;;;5074027;28;20216;-61
2021/01/09 10:36:36;;;;;;;1.00;0.90;;;18.50;24.90;;;;;;5072883;28;20308;-61
2021/01/09 10:39:04;;;;;;;1.40;1.25;;;18.50;24.90;;;;;;5073533;28;20155;-60
2021/01/09 10:41:30;;;;;;;1.45;1.30;;;18.50;24.90;;;;;;5074030;28;20155;-60
2021/01/09 10:43:56;;;;;;;1.20;1.10;;;18.50;24.90;;;;;;5073852;28;20146;-61
2021/01/09 10:46:28;;;;;;;1.20;1.10;;;18.50;24.90;;;;;;5089532;28;20437;-61
2021/01/09 10:48:58;;;;;;;1.38;1.27;;;18.50;24.90;;;;;;5073763;28;20190;-61
2021/01/09 10:51:26;;;;;;;1.80;1.13;;;18.40;24.80;;;;;;5072665;28;20638;-61
2021/01/09 10:53:51;;;;;;;1.30;0.90;;;18.50;24.90;;;;;;5072211;28;20228;-61
2021/01/09 10:56:18;;;;;;;1.50;1.17;;;18.50;25.00;;;;;;5073572;28;20198;-60
2021/01/09 10:58:44;;;;;;;1.85;1.05;;;18.40;24.90;;;;;;5073503;28;20475;-60
2021/01/09 11:01:09;;;;;;;1.53;1.43;;;18.40;24.90;;;;;;5073622;28;20650;-61
2021/01/09 11:03:36;;;;;;;1.47;1.23;;;18.40;24.90;;;;;;5073718;28;20863;-61
2021/01/09 11:06:02;;;;;;;1.20;1.10;;;18.40;24.90;;;;;;5073568;28;20339;-60
2021/01/09 11:08:28;;;;;;;1.20;1.10;;;18.50;25.00;;;;;;5073213;28;20277;-61
2021/01/09 11:10:55;;;;;;;1.37;1.27;;;18.40;24.90;;;;;;5073435;28;20520;-62
2021/01/09 11:13:21;;;;;;;1.30;1.20;;;18.50;25.00;;;;;;5055638;28;20933;-61
2021/01/09 11:15:49;;;;;;;1.85;1.27;;;18.50;25.00;;;;;;5073477;28;20204;-60
2021/01/09 11:18:15;;;;;;;1.88;1.30;;;18.50;24.90;;;;;;5073487;28;20204;-61
2021/01/09 11:21:02;;;;;;;1.25;1.15;;;18.40;24.90;;;;;;5072635;28;20190;-61
2021/01/09 11:23:27;;;;;;;1.52;1.40;;;18.50;24.90;;;;;;5071670;28;20163;-61
2021/01/09 11:25:53;;;;;;;1.57;1.40;;;18.50;24.90;;;;;;5073405;28;20166;-60
2021/01/09 11:28:19;;;;;;;1.40;1.30;;;18.50;24.90;;;;;;5072085;28;20253;-60
2021/01/09 11:30:45;;;;;;;1.40;1.30;;;18.50;24.90;;;;;;5073328;28;20797;-60
2021/01/09 11:33:11;;;;;;;1.48;1.38;;;18.50;24.90;;;;;;5071980;28;20249;-60
2021/01/09 11:35:40;;;;;;;1.43;1.33;;;18.50;24.80;;;;;;5073284;28;20574;-60
2021/01/09 11:38:06;;;;;;;1.67;1.50;;;18.90;25.00;;;;;;5088207;28;20234;-60
2021/01/09 11:40:32;;;;;;;1.67;1.58;;;18.60;24.80;;;;;;5072263;28;20174;-60
2021/01/09 11:42:58;;;;;;;1.70;1.27;;;18.70;24.70;;;;;;5073147;28;20637;-61
2021/01/09 11:45:24;;;;;;;1.20;1.10;;;18.70;24.50;;;;;;5073293;28;20488;-60
2021/01/09 11:47:50;;;;;;;1.13;1.03;;;18.80;24.40;;;;;;5073090;28;20919;-60
2021/01/09 11:50:17;;;;;;;1.40;1.30;;;18.90;24.30;;;;;;5073031;28;20194;-61
2021/01/09 11:52:43;;;;;;;1.20;1.10;;;19.00;24.20;;;;;;5071455;28;20541;-60
2021/01/09 11:55:09;;;;;;;1.40;1.30;;;19.10;23.50;;;;;;5073050;28;20607;-61
2021/01/09 11:57:35;;;;;;;1.23;1.00;;;19.10;23.90;;;;;;5073037;28;20189;-60
2021/01/09 12:00:07;;;;;;;2.60;1.20;;;19.10;23.70;;;;;;5071999;28;20541;-59
2021/01/09 12:02:33;;;;;;;1.25;1.15;;;19.10;23.60;;;;;;5073006;28;20157;-59
2021/01/09 12:05:02;;;;;;;2.43;1.50;;;19.20;23.60;;;;;;5071981;28;20257;-60
2021/01/09 12:07:28;;;;;;;1.35;1.25;;;19.20;23.60;;;;;;5072627;28;20159;-61
2021/01/09 12:09:53;;;;;;;1.53;1.43;;;19.20;23.70;;;;;;5072916;28;20585;-58
2021/01/09 12:12:19;;;;;;;1.47;1.37;;;19.20;23.60;;;;;;5071223;28;20242;-60
2021/01/09 12:14:44;;;;;;;1.30;1.20;;;19.20;23.60;;;;;;5072983;28;20614;-59
2021/01/09 12:17:10;;;;;;;1.30;1.20;;;19.20;23.70;;;;;;5072750;28;20162;-60
2021/01/09 12:19:36;;;;;;;1.30;1.20;;;19.20;23.60;;;;;;5076508;28;20173;-60
2021/01/09 12:22:01;;;;;;;1.40;1.30;;;19.20;23.60;;;;;;5076284;28;20166;-60
2021/01/09 12:24:30;;;;;;;1.77;1.40;;;19.20;23.70;;;;;;5076594;28;20171;-60
2021/01/09 12:26:56;;;;;;;2.58;1.35;;;19.20;23.60;;;;;;5076192;28;20159;-60
2021/01/09 12:29:22;;;;;;;1.00;1.00;;;19.20;23.60;;;;;;5076422;28;20150;-61
2021/01/09 12:31:48;;;;;;;1.30;1.20;;;19.20;23.70;;;;;;5076526;28;20331;-62
2021/01/09 12:34:18;;;;;;;1.60;1.50;;;19.10;23.60;;;;;;5074961;28;20841;-61
2021/01/09 12:36:47;;;;;;;1.27;1.00;;;19.10;23.60;;;;;;5076355;28;20401;-60
2021/01/09 12:39:12;;;;;;;1.40;1.30;;;19.10;24.20;;;;;;5075775;28;20666;-59
2021/01/09 12:41:40;;;;;;;1.20;1.10;;;19.10;24.30;;;;;;5076149;28;20245;-60
2021/01/09 12:44:09;;;;;;;2.10;1.48;;;19.10;23.70;;;;;;5075941;28;20169;-60
2021/01/09 12:46:42;;;;;;;1.95;1.70;;;19.10;23.70;;;;;;5076031;28;20154;-60
2021/01/09 12:49:11;;;;;;;1.55;1.45;;;19.10;23.70;;;;;;5074053;28;20166;-61
2021/01/09 12:51:36;;;;;;;2.30;1.20;;;19.10;23.70;;;;;;5058525;28;20249;-61